Fairmount Springs, Pennsylvania
Current Conditions -  °F | °C
As of 12:15 PM on Thursday 18 Dec 2014 (Local Time) from KHZL Reporting Station
Overcast Overcast  
Wind Chill: 26°   Ceiling: 2700
Heat Index: 32°   Visibility: 10mi
Dew Point: 23°   Wind: 7mph
Humidity: 69%   Direction: 270°W
Pressure: 29.99"   Gusts: NA
Location:  41.2534°N, 76.3299°W
Report Text: KHZL 181715Z AUTO 27006KT 10SM OVC027 00/M05 A2999 RMK AO2
Loading
Personal Weather Stations






























Interactive Weather Map New forecast layout! Learn more

10-Day Weather Forecast

Advertisements
Track Severe Weather on mobile